METAR Data
IDs: Format: Raw Decoded Include TAF

Data at: 1217 UTC 23 Sep 2018

KINT 231154Z 02006KT 1 1/2SM BR OVC002 18/17 A3014 RMK AO2 SLP197 T01780172 10206 20178 53003
KINT 231128Z 03006KT 1 1/4SM BR OVC002 18/17 A3014 RMK AO2 T01780172
KINT 231054Z 05006KT 2 1/2SM BR OVC002 18/17 A3013 RMK AO2 SLP192 T01780172
KINT 230954Z AUTO 05006KT 4SM BR OVC002 18/17 A3013 RMK AO2 SLP191 T01780172
KINT 230854Z AUTO 02007KT 3SM BR OVC002 18/17 A3013 RMK AO2 SLP192 T01780172 53002
KINT 230754Z AUTO 04008KT 8SM OVC003 18/18 A3013 RMK AO2 SLP189 T01830178
KINT 230654Z AUTO 03008KT 10SM OVC004 19/18 A3013 RMK AO2 SLP190 T01890183
KINT 230554Z AUTO 03008KT 10SM OVC004 21/19 A3013 RMK AO2 SLP190 T02060194 10267 20206 51004
KINT 230546Z AUTO 03007KT 10SM OVC004 21/19 A3013 RMK AO2 T02060194
KINT 230454Z AUTO 03009KT 10SM BKN006 BKN090 22/21 A3013 RMK AO2 SLP189 T02170206 403170211
KINT 230447Z AUTO 03007KT 10SM SCT006 BKN042 BKN060 22/21 A3013 RMK AO2 T02220211
KINT 230354Z AUTO 03006KT 10SM OVC043 23/21 A3012 RMK AO2 SLP188 T02330211
KINT 230254Z AUTO 00000KT 10SM CLR 24/21 A3011 RMK AO2 SLP185 T02390206 53017
KINT 230154Z AUTO 18003KT 10SM CLR 26/21 A3010 RMK AO2 SLP179 T02560206
KINT 230054Z 18003KT 10SM CLR 26/21 A3008 RMK AO2 LTG DSNT NE SLP173 T02560211
KINT 222354Z 17003KT 10SM CLR 27/21 A3006 RMK AO2 SLP169 T02670211 10317 20267 53002
KINT 222254Z 18005KT 10SM FEW080 28/21 A3005 RMK AO2 SLP165 T02830206
KINT 222154Z 00000KT 10SM FEW120 28/21 A3005 RMK AO2 SLP163 T02830211
KINT 222054Z 15003KT 10SM FEW049 FEW080 BKN110 29/20 A3006 RMK AO2 SLP166 T02940200 56016
KINT 221954Z 13006KT 10SM FEW047 SCT065 31/19 A3006 RMK AO2 SLP167 T03060194
KINT 221854Z 13005KT 10SM FEW070 SCT085 31/20 A3008 RMK AO2 SLP173 T03110200
KINT 221754Z 00000KT 10SM CLR 31/19 A3010 RMK AO2 SLP181 T03060194 10311 20211 58015
KINT 221654Z VRB04KT 10SM CLR 31/20 A3012 RMK AO2 SLP187 T03060200
KINT 221554Z 00000KT 10SM CLR 29/20 A3014 RMK AO2 SLP192 T02890200
KINT 221454Z 00000KT 10SM CLR 27/21 A3015 RMK AO2 SLP198 T02670206 51004
KINT 221354Z 00000KT 10SM CLR 24/21 A3015 RMK AO2 SLP197 T02440206
KINT 221254Z VRB04KT 9SM CLR 23/20 A3014 RMK AO2 SLP195 T02280200
KINT 221154Z 00000KT 7SM CLR 21/20 A3014 RMK AO2 SLP194 T02110200 10228 20211 51006
KINT 221054Z VRB03KT 8SM CLR 21/20 A3013 RMK AO2 SLP191 T02110200
KINT 220954Z AUTO VRB04KT 9SM CLR 21/20 A3013 RMK AO2 SLP190 T02110200
KINT 220854Z AUTO 21005KT 9SM CLR 22/20 A3012 RMK AO2 SLP187 T02170200 58010
KINT 220754Z AUTO 22003KT 10SM CLR 22/20 A3014 RMK AO2 SLP193 T02170200
KINT 220654Z AUTO 22004KT 10SM CLR 22/20 A3014 RMK AO2 SLP194 T02220200
KINT 220554Z AUTO VRB04KT 10SM CLR 23/20 A3015 RMK AO2 SLP197 T02280200 10256 20228 55007
KINT 220454Z AUTO VRB06KT 10SM CLR 23/20 A3015 RMK AO2 SLP195 T02330200 403000222
KINT 220354Z AUTO VRB03KT 10SM CLR 23/21 A3016 RMK AO2 SLP201 T02330206
KINT 220254Z AUTO VRB06KT 10SM CLR 24/21 A3017 RMK AO2 SLP205 T02390211 51015
KINT 220154Z AUTO 17004KT 10SM CLR 24/21 A3016 RMK AO2 SLP202 T02440206
KINT 220054Z 00000KT 10SM FEW049 SCT060 26/21 A3016 RMK AO2 SLP200 T02560206